sensor_id;sensor_type;location;lat;lon;timestamp;P1;durP1;ratioP1;P2;durP2;ratioP2
11228;SDS011;5671;47.936;8.716;2023-04-10T00:00:29;5.80;;;5.20;;
11228;SDS011;5671;47.936;8.716;2023-04-10T00:02:56;5.77;;;5.13;;
11228;SDS011;5671;47.936;8.716;2023-04-10T00:05:23;6.63;;;4.87;;
11228;SDS011;5671;47.936;8.716;2023-04-10T00:07:51;5.47;;;4.97;;
11228;SDS011;5671;47.936;8.716;2023-04-10T00:10:18;5.77;;;4.90;;
11228;SDS011;5671;47.936;8.716;2023-04-10T00:12:46;4.87;;;4.40;;
11228;SDS011;5671;47.936;8.716;2023-04-10T00:15:13;5.33;;;4.73;;
11228;SDS011;5671;47.936;8.716;2023-04-10T00:17:39;4.90;;;4.40;;
11228;SDS011;5671;47.936;8.716;2023-04-10T00:20:07;4.93;;;4.43;;
11228;SDS011;5671;47.936;8.716;2023-04-10T00:22:34;5.83;;;4.80;;
11228;SDS011;5671;47.936;8.716;2023-04-10T00:25:02;4.57;;;4.17;;
11228;SDS011;5671;47.936;8.716;2023-04-10T00:27:30;5.20;;;4.70;;
11228;SDS011;5671;47.936;8.716;2023-04-10T00:29:57;4.63;;;3.77;;
11228;SDS011;5671;47.936;8.716;2023-04-10T00:32:24;6.90;;;4.50;;
11228;SDS011;5671;47.936;8.716;2023-04-10T00:34:50;4.80;;;4.30;;
11228;SDS011;5671;47.936;8.716;2023-04-10T00:37:17;5.13;;;4.63;;
11228;SDS011;5671;47.936;8.716;2023-04-10T00:39:44;4.87;;;4.23;;
11228;SDS011;5671;47.936;8.716;2023-04-10T00:42:12;4.90;;;4.20;;
11228;SDS011;5671;47.936;8.716;2023-04-10T00:44:39;5.10;;;4.60;;
11228;SDS011;5671;47.936;8.716;2023-04-10T00:47:06;4.53;;;4.00;;
11228;SDS011;5671;47.936;8.716;2023-04-10T00:49:33;4.63;;;4.23;;
11228;SDS011;5671;47.936;8.716;2023-04-10T00:52:00;4.90;;;4.13;;
11228;SDS011;5671;47.936;8.716;2023-04-10T00:54:27;4.50;;;4.10;;
11228;SDS011;5671;47.936;8.716;2023-04-10T00:56:54;4.90;;;4.50;;
11228;SDS011;5671;47.936;8.716;2023-04-10T00:59:23;5.27;;;4.70;;
11228;SDS011;5671;47.936;8.716;2023-04-10T01:01:51;6.63;;;4.53;;
11228;SDS011;5671;47.936;8.716;2023-04-10T01:04:17;5.20;;;4.70;;
11228;SDS011;5671;47.936;8.716;2023-04-10T01:06:49;5.07;;;4.57;;
11228;SDS011;5671;47.936;8.716;2023-04-10T01:09:26;5.17;;;4.50;;
11228;SDS011;5671;47.936;8.716;2023-04-10T01:12:03;4.60;;;4.07;;
11228;SDS011;5671;47.936;8.716;2023-04-10T01:14:48;4.63;;;4.23;;
11228;SDS011;5671;47.936;8.716;2023-04-10T01:17:26;4.63;;;4.23;;
11228;SDS011;5671;47.936;8.716;2023-04-10T01:19:57;5.13;;;4.40;;
11228;SDS011;5671;47.936;8.716;2023-04-10T01:22:35;5.53;;;5.03;;
11228;SDS011;5671;47.936;8.716;2023-04-10T01:28:04;5.67;;;4.47;;
11228;SDS011;5671;47.936;8.716;2023-04-10T01:30:41;5.90;;;4.63;;
11228;SDS011;5671;47.936;8.716;2023-04-10T01:33:08;8.00;;;7.20;;
11228;SDS011;5671;47.936;8.716;2023-04-10T01:35:38;4.97;;;4.47;;
11228;SDS011;5671;47.936;8.716;2023-04-10T01:38:08;4.90;;;4.40;;
11228;SDS011;5671;47.936;8.716;2023-04-10T01:40:36;4.93;;;4.40;;
11228;SDS011;5671;47.936;8.716;2023-04-10T01:43:07;4.40;;;4.00;;
11228;SDS011;5671;47.936;8.716;2023-04-10T01:45:35;4.60;;;4.00;;
11228;SDS011;5671;47.936;8.716;2023-04-10T01:48:06;4.00;;;3.60;;
11228;SDS011;5671;47.936;8.716;2023-04-10T01:50:34;5.63;;;4.03;;
11228;SDS011;5671;47.936;8.716;2023-04-10T01:53:01;4.57;;;3.83;;
11228;SDS011;5671;47.936;8.716;2023-04-10T01:55:29;4.97;;;4.40;;
11228;SDS011;5671;47.936;8.716;2023-04-10T01:57:57;6.17;;;3.97;;
11228;SDS011;5671;47.936;8.716;2023-04-10T02:00:24;4.00;;;3.60;;
11228;SDS011;5671;47.936;8.716;2023-04-10T02:02:51;4.20;;;3.80;;
11228;SDS011;5671;47.936;8.716;2023-04-10T02:05:20;4.30;;;3.90;;
11228;SDS011;5671;47.936;8.716;2023-04-10T02:07:49;4.53;;;3.93;;
11228;SDS011;5671;47.936;8.716;2023-04-10T02:10:23;4.97;;;3.63;;
11228;SDS011;5671;47.936;8.716;2023-04-10T02:12:57;4.50;;;3.90;;
11228;SDS011;5671;47.936;8.716;2023-04-10T02:15:26;4.20;;;3.77;;
11228;SDS011;5671;47.936;8.716;2023-04-10T02:17:54;4.23;;;3.60;;
11228;SDS011;5671;47.936;8.716;2023-04-10T02:20:24;4.47;;;4.03;;
11228;SDS011;5671;47.936;8.716;2023-04-10T02:22:52;4.60;;;4.20;;
11228;SDS011;5671;47.936;8.716;2023-04-10T02:25:19;4.37;;;3.97;;
11228;SDS011;5671;47.936;8.716;2023-04-10T02:27:46;4.37;;;3.97;;
11228;SDS011;5671;47.936;8.716;2023-04-10T02:30:13;4.60;;;4.20;;
11228;SDS011;5671;47.936;8.716;2023-04-10T02:32:40;5.03;;;3.83;;
11228;SDS011;5671;47.936;8.716;2023-04-10T02:35:08;5.40;;;4.50;;
11228;SDS011;5671;47.936;8.716;2023-04-10T02:37:36;5.10;;;4.43;;
11228;SDS011;5671;47.936;8.716;2023-04-10T02:40:03;4.50;;;4.10;;
11228;SDS011;5671;47.936;8.716;2023-04-10T02:42:31;4.50;;;3.97;;
11228;SDS011;5671;47.936;8.716;2023-04-10T02:44:58;4.10;;;3.70;;
11228;SDS011;5671;47.936;8.716;2023-04-10T02:47:25;3.73;;;3.40;;
11228;SDS011;5671;47.936;8.716;2023-04-10T02:49:51;4.43;;;3.67;;
11228;SDS011;5671;47.936;8.716;2023-04-10T02:52:18;4.30;;;3.90;;
11228;SDS011;5671;47.936;8.716;2023-04-10T02:54:46;4.53;;;3.87;;
11228;SDS011;5671;47.936;8.716;2023-04-10T02:57:13;4.70;;;4.07;;
11228;SDS011;5671;47.936;8.716;2023-04-10T02:59:41;4.50;;;3.80;;
11228;SDS011;5671;47.936;8.716;2023-04-10T03:02:08;4.20;;;3.80;;
11228;SDS011;5671;47.936;8.716;2023-04-10T03:04:35;5.03;;;4.50;;
11228;SDS011;5671;47.936;8.716;2023-04-10T03:07:04;4.23;;;3.83;;
11228;SDS011;5671;47.936;8.716;2023-04-10T03:09:31;4.30;;;3.70;;
11228;SDS011;5671;47.936;8.716;2023-04-10T03:11:59;4.47;;;3.90;;
11228;SDS011;5671;47.936;8.716;2023-04-10T03:14:27;5.17;;;4.23;;
11228;SDS011;5671;47.936;8.716;2023-04-10T03:16:53;4.40;;;4.00;;
11228;SDS011;5671;47.936;8.716;2023-04-10T03:19:20;4.50;;;3.67;;
11228;SDS011;5671;47.936;8.716;2023-04-10T03:21:47;3.40;;;3.10;;
11228;SDS011;5671;47.936;8.716;2023-04-10T03:24:14;3.93;;;3.53;;
11228;SDS011;5671;47.936;8.716;2023-04-10T03:26:40;3.30;;;3.00;;
11228;SDS011;5671;47.936;8.716;2023-04-10T03:29:09;3.97;;;3.57;;
11228;SDS011;5671;47.936;8.716;2023-04-10T03:31:35;3.60;;;3.27;;
11228;SDS011;5671;47.936;8.716;2023-04-10T03:34:02;3.50;;;3.20;;
11228;SDS011;5671;47.936;8.716;2023-04-10T03:36:29;3.30;;;3.00;;
11228;SDS011;5671;47.936;8.716;2023-04-10T03:38:56;3.87;;;3.47;;
11228;SDS011;5671;47.936;8.716;2023-04-10T03:41:23;3.93;;;3.63;;
11228;SDS011;5671;47.936;8.716;2023-04-10T03:43:50;3.57;;;3.27;;
11228;SDS011;5671;47.936;8.716;2023-04-10T03:46:18;4.30;;;3.70;;
11228;SDS011;5671;47.936;8.716;2023-04-10T03:48:46;3.67;;;3.33;;
11228;SDS011;5671;47.936;8.716;2023-04-10T03:51:13;4.77;;;4.20;;
11228;SDS011;5671;47.936;8.716;2023-04-10T03:53:40;4.40;;;4.00;;
11228;SDS011;5671;47.936;8.716;2023-04-10T03:56:07;4.47;;;3.90;;
11228;SDS011;5671;47.936;8.716;2023-04-10T03:58:34;3.73;;;3.43;;
11228;SDS011;5671;47.936;8.716;2023-04-10T04:01:01;4.13;;;3.73;;
11228;SDS011;5671;47.936;8.716;2023-04-10T04:03:31;4.10;;;3.70;;
11228;SDS011;5671;47.936;8.716;2023-04-10T04:05:58;4.00;;;3.60;;
11228;SDS011;5671;47.936;8.716;2023-04-10T04:08:25;4.30;;;3.90;;
11228;SDS011;5671;47.936;8.716;2023-04-10T04:10:51;4.13;;;3.73;;
11228;SDS011;5671;47.936;8.716;2023-04-10T04:13:18;3.83;;;3.47;;
11228;SDS011;5671;47.936;8.716;2023-04-10T04:15:45;4.37;;;3.50;;
11228;SDS011;5671;47.936;8.716;2023-04-10T04:18:12;4.17;;;3.77;;
11228;SDS011;5671;47.936;8.716;2023-04-10T04:20:40;3.70;;;3.40;;
11228;SDS011;5671;47.936;8.716;2023-04-10T04:23:07;4.43;;;3.83;;
11228;SDS011;5671;47.936;8.716;2023-04-10T04:25:34;13.40;;;3.83;;
11228;SDS011;5671;47.936;8.716;2023-04-10T04:28:01;4.30;;;3.90;;
11228;SDS011;5671;47.936;8.716;2023-04-10T04:30:28;4.37;;;3.60;;
11228;SDS011;5671;47.936;8.716;2023-04-10T04:32:54;4.13;;;3.73;;
11228;SDS011;5671;47.936;8.716;2023-04-10T04:35:21;4.07;;;3.63;;
11228;SDS011;5671;47.936;8.716;2023-04-10T04:37:50;4.27;;;3.83;;
11228;SDS011;5671;47.936;8.716;2023-04-10T04:40:16;4.60;;;4.10;;
11228;SDS011;5671;47.936;8.716;2023-04-10T04:42:43;4.90;;;3.50;;
11228;SDS011;5671;47.936;8.716;2023-04-10T04:45:10;3.83;;;3.47;;
11228;SDS011;5671;47.936;8.716;2023-04-10T04:47:38;4.70;;;4.00;;
11228;SDS011;5671;47.936;8.716;2023-04-10T04:50:05;4.67;;;3.90;;
11228;SDS011;5671;47.936;8.716;2023-04-10T04:52:33;4.17;;;3.77;;
11228;SDS011;5671;47.936;8.716;2023-04-10T04:55:01;5.50;;;3.63;;
11228;SDS011;5671;47.936;8.716;2023-04-10T04:57:28;4.10;;;3.60;;
11228;SDS011;5671;47.936;8.716;2023-04-10T04:59:55;4.33;;;3.93;;
11228;SDS011;5671;47.936;8.716;2023-04-10T05:02:21;4.30;;;3.90;;
11228;SDS011;5671;47.936;8.716;2023-04-10T05:04:48;4.87;;;4.00;;
11228;SDS011;5671;47.936;8.716;2023-04-10T05:07:15;5.17;;;4.00;;
11228;SDS011;5671;47.936;8.716;2023-04-10T05:09:42;5.07;;;4.10;;
11228;SDS011;5671;47.936;8.716;2023-04-10T05:12:10;24.67;;;20.93;;
11228;SDS011;5671;47.936;8.716;2023-04-10T05:14:37;15.23;;;12.30;;
11228;SDS011;5671;47.936;8.716;2023-04-10T05:17:04;7.27;;;6.03;;
11228;SDS011;5671;47.936;8.716;2023-04-10T05:19:30;5.07;;;4.50;;
11228;SDS011;5671;47.936;8.716;2023-04-10T05:21:57;4.80;;;4.20;;
11228;SDS011;5671;47.936;8.716;2023-04-10T05:24:24;4.93;;;4.00;;
11228;SDS011;5671;47.936;8.716;2023-04-10T05:26:51;4.50;;;3.97;;
11228;SDS011;5671;47.936;8.716;2023-04-10T05:29:19;5.30;;;4.50;;
11228;SDS011;5671;47.936;8.716;2023-04-10T05:31:46;4.57;;;4.17;;
11228;SDS011;5671;47.936;8.716;2023-04-10T05:34:12;4.53;;;3.70;;
11228;SDS011;5671;47.936;8.716;2023-04-10T05:36:39;6.20;;;3.93;;
11228;SDS011;5671;47.936;8.716;2023-04-10T05:39:06;6.77;;;3.37;;
11228;SDS011;5671;47.936;8.716;2023-04-10T05:41:33;4.10;;;3.70;;
11228;SDS011;5671;47.936;8.716;2023-04-10T05:44:00;4.20;;;3.73;;
11228;SDS011;5671;47.936;8.716;2023-04-10T05:46:28;4.33;;;3.87;;
11228;SDS011;5671;47.936;8.716;2023-04-10T05:48:55;7.33;;;4.93;;
11228;SDS011;5671;47.936;8.716;2023-04-10T05:51:21;6.80;;;4.93;;
11228;SDS011;5671;47.936;8.716;2023-04-10T05:53:49;5.00;;;4.13;;
11228;SDS011;5671;47.936;8.716;2023-04-10T05:56:15;6.27;;;4.30;;
11228;SDS011;5671;47.936;8.716;2023-04-10T05:58:42;4.30;;;3.40;;
11228;SDS011;5671;47.936;8.716;2023-04-10T06:01:09;4.20;;;3.80;;
11228;SDS011;5671;47.936;8.716;2023-04-10T06:03:38;4.60;;;4.03;;
11228;SDS011;5671;47.936;8.716;2023-04-10T06:06:06;4.40;;;4.00;;
11228;SDS011;5671;47.936;8.716;2023-04-10T06:08:33;4.27;;;3.73;;
11228;SDS011;5671;47.936;8.716;2023-04-10T06:11:00;4.27;;;3.87;;
11228;SDS011;5671;47.936;8.716;2023-04-10T06:13:27;4.67;;;3.70;;
11228;SDS011;5671;47.936;8.716;2023-04-10T06:15:54;3.90;;;3.50;;
11228;SDS011;5671;47.936;8.716;2023-04-10T06:18:21;4.00;;;3.60;;
11228;SDS011;5671;47.936;8.716;2023-04-10T06:20:49;4.70;;;4.20;;
11228;SDS011;5671;47.936;8.716;2023-04-10T06:23:16;4.33;;;3.93;;
11228;SDS011;5671;47.936;8.716;2023-04-10T06:25:45;4.40;;;3.67;;
11228;SDS011;5671;47.936;8.716;2023-04-10T06:28:12;4.43;;;4.00;;
11228;SDS011;5671;47.936;8.716;2023-04-10T06:30:39;4.23;;;3.83;;
11228;SDS011;5671;47.936;8.716;2023-04-10T06:33:06;5.13;;;4.00;;
11228;SDS011;5671;47.936;8.716;2023-04-10T06:35:33;5.57;;;3.87;;
11228;SDS011;5671;47.936;8.716;2023-04-10T06:38:01;4.93;;;4.43;;
11228;SDS011;5671;47.936;8.716;2023-04-10T06:40:28;5.43;;;4.63;;
11228;SDS011;5671;47.936;8.716;2023-04-10T06:42:55;4.40;;;3.80;;
11228;SDS011;5671;47.936;8.716;2023-04-10T06:45:22;6.07;;;4.20;;
11228;SDS011;5671;47.936;8.716;2023-04-10T06:47:49;4.70;;;4.20;;
11228;SDS011;5671;47.936;8.716;2023-04-10T06:50:16;5.43;;;4.43;;
11228;SDS011;5671;47.936;8.716;2023-04-10T06:52:43;5.20;;;4.07;;
11228;SDS011;5671;47.936;8.716;2023-04-10T06:55:11;4.63;;;4.07;;
11228;SDS011;5671;47.936;8.716;2023-04-10T06:57:38;4.80;;;4.23;;
11228;SDS011;5671;47.936;8.716;2023-04-10T07:00:06;4.60;;;4.20;;
11228;SDS011;5671;47.936;8.716;2023-04-10T07:02:34;7.37;;;5.10;;
11228;SDS011;5671;47.936;8.716;2023-04-10T07:05:01;4.63;;;4.20;;
11228;SDS011;5671;47.936;8.716;2023-04-10T07:07:28;4.70;;;4.30;;
11228;SDS011;5671;47.936;8.716;2023-04-10T07:09:55;4.80;;;4.30;;
11228;SDS011;5671;47.936;8.716;2023-04-10T07:12:24;4.93;;;4.43;;
11228;SDS011;5671;47.936;8.716;2023-04-10T07:14:50;4.40;;;4.00;;
11228;SDS011;5671;47.936;8.716;2023-04-10T07:17:17;4.07;;;3.70;;
11228;SDS011;5671;47.936;8.716;2023-04-10T07:19:44;4.77;;;4.37;;
11228;SDS011;5671;47.936;8.716;2023-04-10T07:22:11;4.67;;;4.17;;
11228;SDS011;5671;47.936;8.716;2023-04-10T07:24:38;5.07;;;4.10;;
11228;SDS011;5671;47.936;8.716;2023-04-10T07:27:05;4.50;;;4.10;;
11228;SDS011;5671;47.936;8.716;2023-04-10T07:29:33;4.40;;;4.00;;
11228;SDS011;5671;47.936;8.716;2023-04-10T07:32:00;4.00;;;3.60;;
11228;SDS011;5671;47.936;8.716;2023-04-10T07:34:27;4.43;;;4.03;;
11228;SDS011;5671;47.936;8.716;2023-04-10T07:36:55;4.27;;;3.87;;
11228;SDS011;5671;47.936;8.716;2023-04-10T07:39:22;4.00;;;3.60;;
11228;SDS011;5671;47.936;8.716;2023-04-10T07:41:49;3.90;;;3.57;;
11228;SDS011;5671;47.936;8.716;2023-04-10T07:44:18;4.20;;;3.80;;
11228;SDS011;5671;47.936;8.716;2023-04-10T07:46:46;4.30;;;3.90;;
11228;SDS011;5671;47.936;8.716;2023-04-10T07:49:13;4.70;;;3.60;;
11228;SDS011;5671;47.936;8.716;2023-04-10T07:51:40;4.63;;;3.83;;
11228;SDS011;5671;47.936;8.716;2023-04-10T07:54:07;3.90;;;3.60;;
11228;SDS011;5671;47.936;8.716;2023-04-10T07:56:33;3.90;;;3.60;;
11228;SDS011;5671;47.936;8.716;2023-04-10T07:59:01;4.23;;;3.83;;
11228;SDS011;5671;47.936;8.716;2023-04-10T08:01:28;4.33;;;3.93;;
11228;SDS011;5671;47.936;8.716;2023-04-10T08:03:56;3.40;;;3.10;;
11228;SDS011;5671;47.936;8.716;2023-04-10T08:06:23;3.73;;;3.37;;
11228;SDS011;5671;47.936;8.716;2023-04-10T08:08:50;3.50;;;3.20;;
11228;SDS011;5671;47.936;8.716;2023-04-10T08:11:21;3.50;;;3.20;;
11228;SDS011;5671;47.936;8.716;2023-04-10T08:13:49;3.40;;;3.10;;
11228;SDS011;5671;47.936;8.716;2023-04-10T08:16:17;4.70;;;3.43;;
11228;SDS011;5671;47.936;8.716;2023-04-10T08:18:45;3.87;;;3.40;;
11228;SDS011;5671;47.936;8.716;2023-04-10T08:21:13;3.50;;;3.20;;
11228;SDS011;5671;47.936;8.716;2023-04-10T08:23:40;3.43;;;3.13;;
11228;SDS011;5671;47.936;8.716;2023-04-10T08:26:07;3.83;;;3.47;;
11228;SDS011;5671;47.936;8.716;2023-04-10T08:28:34;3.50;;;2.90;;
11228;SDS011;5671;47.936;8.716;2023-04-10T08:31:01;3.27;;;2.97;;
11228;SDS011;5671;47.936;8.716;2023-04-10T08:33:28;3.40;;;3.10;;
11228;SDS011;5671;47.936;8.716;2023-04-10T08:35:56;3.50;;;3.20;;
11228;SDS011;5671;47.936;8.716;2023-04-10T08:38:24;3.57;;;3.27;;
11228;SDS011;5671;47.936;8.716;2023-04-10T08:40:51;3.10;;;2.80;;
11228;SDS011;5671;47.936;8.716;2023-04-10T08:43:18;2.83;;;2.63;;
11228;SDS011;5671;47.936;8.716;2023-04-10T08:45:45;3.30;;;3.00;;
11228;SDS011;5671;47.936;8.716;2023-04-10T08:48:13;2.83;;;2.50;;
11228;SDS011;5671;47.936;8.716;2023-04-10T08:50:41;3.20;;;2.90;;
11228;SDS011;5671;47.936;8.716;2023-04-10T08:53:11;2.70;;;2.50;;
11228;SDS011;5671;47.936;8.716;2023-04-10T08:55:41;2.40;;;2.20;;
11228;SDS011;5671;47.936;8.716;2023-04-10T08:58:09;2.80;;;2.60;;
11228;SDS011;5671;47.936;8.716;2023-04-10T09:00:38;2.60;;;2.40;;
11228;SDS011;5671;47.936;8.716;2023-04-10T09:03:05;2.80;;;2.50;;
11228;SDS011;5671;47.936;8.716;2023-04-10T09:05:35;2.37;;;2.17;;
11228;SDS011;5671;47.936;8.716;2023-04-10T09:08:03;2.50;;;2.30;;
11228;SDS011;5671;47.936;8.716;2023-04-10T09:10:30;1.93;;;1.83;;
11228;SDS011;5671;47.936;8.716;2023-04-10T09:12:58;2.10;;;2.00;;
11228;SDS011;5671;47.936;8.716;2023-04-10T09:15:25;2.00;;;1.90;;
11228;SDS011;5671;47.936;8.716;2023-04-10T09:17:55;2.17;;;2.07;;
11228;SDS011;5671;47.936;8.716;2023-04-10T09:20:23;1.83;;;1.73;;
11228;SDS011;5671;47.936;8.716;2023-04-10T09:22:51;1.90;;;1.80;;
11228;SDS011;5671;47.936;8.716;2023-04-10T09:28:05;2.60;;;2.40;;
11228;SDS011;5671;47.936;8.716;2023-04-10T09:30:34;2.67;;;2.43;;
11228;SDS011;5671;47.936;8.716;2023-04-10T09:33:12;2.80;;;2.60;;
11228;SDS011;5671;47.936;8.716;2023-04-10T09:35:46;1.90;;;1.80;;
11228;SDS011;5671;47.936;8.716;2023-04-10T09:38:14;2.20;;;2.10;;
11228;SDS011;5671;47.936;8.716;2023-04-10T09:40:42;2.43;;;2.23;;
11228;SDS011;5671;47.936;8.716;2023-04-10T09:43:17;2.90;;;2.70;;
11228;SDS011;5671;47.936;8.716;2023-04-10T09:45:45;2.60;;;2.40;;
11228;SDS011;5671;47.936;8.716;2023-04-10T09:48:13;2.90;;;2.70;;
11228;SDS011;5671;47.936;8.716;2023-04-10T09:50:40;2.37;;;2.27;;
11228;SDS011;5671;47.936;8.716;2023-04-10T09:53:07;2.70;;;2.50;;
11228;SDS011;5671;47.936;8.716;2023-04-10T09:55:35;2.60;;;2.40;;
11228;SDS011;5671;47.936;8.716;2023-04-10T09:58:02;2.47;;;2.27;;
11228;SDS011;5671;47.936;8.716;2023-04-10T10:00:31;2.50;;;2.30;;
11228;SDS011;5671;47.936;8.716;2023-04-10T10:03:03;2.40;;;2.20;;
11228;SDS011;5671;47.936;8.716;2023-04-10T10:05:33;2.63;;;2.43;;
11228;SDS011;5671;47.936;8.716;2023-04-10T10:08:01;2.47;;;2.27;;
11228;SDS011;5671;47.936;8.716;2023-04-10T10:10:29;2.40;;;2.20;;
11228;SDS011;5671;47.936;8.716;2023-04-10T10:12:57;2.47;;;2.27;;
11228;SDS011;5671;47.936;8.716;2023-04-10T10:15:27;1.80;;;1.70;;
11228;SDS011;5671;47.936;8.716;2023-04-10T10:18:03;2.40;;;2.23;;
11228;SDS011;5671;47.936;8.716;2023-04-10T10:20:46;2.60;;;2.40;;
11228;SDS011;5671;47.936;8.716;2023-04-10T10:23:13;2.67;;;2.47;;
11228;SDS011;5671;47.936;8.716;2023-04-10T10:25:42;2.30;;;2.20;;
11228;SDS011;5671;47.936;8.716;2023-04-10T10:28:11;2.40;;;2.20;;
11228;SDS011;5671;47.936;8.716;2023-04-10T10:30:41;3.63;;;2.30;;
11228;SDS011;5671;47.936;8.716;2023-04-10T10:33:08;3.07;;;2.53;;
11228;SDS011;5671;47.936;8.716;2023-04-10T10:35:37;2.30;;;2.10;;
11228;SDS011;5671;47.936;8.716;2023-04-10T10:38:07;2.33;;;2.20;;
11228;SDS011;5671;47.936;8.716;2023-04-10T10:40:40;1.67;;;1.57;;
11228;SDS011;5671;47.936;8.716;2023-04-10T10:43:15;2.50;;;2.30;;
11228;SDS011;5671;47.936;8.716;2023-04-10T10:45:51;3.60;;;2.30;;
11228;SDS011;5671;47.936;8.716;2023-04-10T10:48:22;2.20;;;2.10;;
11228;SDS011;5671;47.936;8.716;2023-04-10T10:50:50;1.80;;;1.70;;
11228;SDS011;5671;47.936;8.716;2023-04-10T10:53:34;1.80;;;1.70;;
11228;SDS011;5671;47.936;8.716;2023-04-10T10:59:00;1.77;;;1.67;;
11228;SDS011;5671;47.936;8.716;2023-04-10T11:01:29;2.20;;;2.10;;
11228;SDS011;5671;47.936;8.716;2023-04-10T11:03:55;1.90;;;1.80;;
11228;SDS011;5671;47.936;8.716;2023-04-10T11:12:15;1.90;;;1.80;;
11228;SDS011;5671;47.936;8.716;2023-04-10T11:14:54;2.43;;;2.23;;
11228;SDS011;5671;47.936;8.716;2023-04-10T11:20:14;1.80;;;1.70;;
11228;SDS011;5671;47.936;8.716;2023-04-10T11:25:46;1.60;;;1.50;;
11228;SDS011;5671;47.936;8.716;2023-04-10T11:28:34;2.10;;;2.00;;
11228;SDS011;5671;47.936;8.716;2023-04-10T11:31:17;3.00;;;1.60;;
11228;SDS011;5671;47.936;8.716;2023-04-10T11:33:48;1.60;;;1.50;;
11228;SDS011;5671;47.936;8.716;2023-04-10T11:36:25;1.87;;;1.77;;
11228;SDS011;5671;47.936;8.716;2023-04-10T11:38:52;1.93;;;1.70;;
11228;SDS011;5671;47.936;8.716;2023-04-10T11:41:25;1.70;;;1.60;;
11228;SDS011;5671;47.936;8.716;2023-04-10T11:43:54;1.40;;;1.30;;
11228;SDS011;5671;47.936;8.716;2023-04-10T11:46:21;1.20;;;1.10;;
11228;SDS011;5671;47.936;8.716;2023-04-10T11:48:52;1.33;;;1.33;;
11228;SDS011;5671;47.936;8.716;2023-04-10T11:51:20;1.60;;;1.50;;
11228;SDS011;5671;47.936;8.716;2023-04-10T11:53:47;1.93;;;1.83;;
11228;SDS011;5671;47.936;8.716;2023-04-10T11:56:18;1.90;;;1.80;;
11228;SDS011;5671;47.936;8.716;2023-04-10T11:58:48;1.83;;;1.73;;
11228;SDS011;5671;47.936;8.716;2023-04-10T12:01:19;1.90;;;1.80;;
11228;SDS011;5671;47.936;8.716;2023-04-10T12:03:47;2.17;;;2.00;;
11228;SDS011;5671;47.936;8.716;2023-04-10T12:06:15;1.80;;;1.70;;
11228;SDS011;5671;47.936;8.716;2023-04-10T12:08:44;1.43;;;1.40;;
11228;SDS011;5671;47.936;8.716;2023-04-10T12:11:13;1.60;;;1.50;;
11228;SDS011;5671;47.936;8.716;2023-04-10T12:13:42;1.70;;;1.60;;
11228;SDS011;5671;47.936;8.716;2023-04-10T12:16:09;2.20;;;2.10;;
11228;SDS011;5671;47.936;8.716;2023-04-10T12:18:36;1.97;;;1.87;;
11228;SDS011;5671;47.936;8.716;2023-04-10T12:21:03;2.33;;;2.13;;
11228;SDS011;5671;47.936;8.716;2023-04-10T12:23:34;1.70;;;1.60;;
11228;SDS011;5671;47.936;8.716;2023-04-10T12:26:07;4.20;;;2.40;;
11228;SDS011;5671;47.936;8.716;2023-04-10T12:28:36;2.97;;;2.27;;
11228;SDS011;5671;47.936;8.716;2023-04-10T12:31:04;1.87;;;1.77;;
11228;SDS011;5671;47.936;8.716;2023-04-10T12:33:31;2.77;;;2.40;;
11228;SDS011;5671;47.936;8.716;2023-04-10T12:35:58;2.40;;;2.20;;
11228;SDS011;5671;47.936;8.716;2023-04-10T12:38:39;2.40;;;1.93;;
11228;SDS011;5671;47.936;8.716;2023-04-10T12:41:07;2.47;;;2.27;;
11228;SDS011;5671;47.936;8.716;2023-04-10T12:43:35;2.60;;;2.40;;
11228;SDS011;5671;47.936;8.716;2023-04-10T12:46:04;2.50;;;2.30;;
11228;SDS011;5671;47.936;8.716;2023-04-10T12:48:31;2.60;;;2.40;;
11228;SDS011;5671;47.936;8.716;2023-04-10T12:50:58;2.70;;;2.50;;
11228;SDS011;5671;47.936;8.716;2023-04-10T12:53:25;2.27;;;2.10;;
11228;SDS011;5671;47.936;8.716;2023-04-10T12:55:58;2.60;;;2.40;;
11228;SDS011;5671;47.936;8.716;2023-04-10T12:58:26;2.90;;;2.60;;
11228;SDS011;5671;47.936;8.716;2023-04-10T13:00:55;2.30;;;2.10;;
11228;SDS011;5671;47.936;8.716;2023-04-10T13:03:22;3.43;;;2.40;;
11228;SDS011;5671;47.936;8.716;2023-04-10T13:05:49;2.20;;;2.10;;
11228;SDS011;5671;47.936;8.716;2023-04-10T13:08:17;2.70;;;2.50;;
11228;SDS011;5671;47.936;8.716;2023-04-10T13:10:44;2.70;;;2.50;;
11228;SDS011;5671;47.936;8.716;2023-04-10T13:13:12;3.20;;;2.70;;
11228;SDS011;5671;47.936;8.716;2023-04-10T13:15:39;2.73;;;2.50;;
11228;SDS011;5671;47.936;8.716;2023-04-10T13:18:06;2.20;;;2.03;;
11228;SDS011;5671;47.936;8.716;2023-04-10T13:20:34;4.57;;;2.73;;
11228;SDS011;5671;47.936;8.716;2023-04-10T13:23:01;3.17;;;2.87;;
11228;SDS011;5671;47.936;8.716;2023-04-10T13:25:29;2.60;;;2.40;;
11228;SDS011;5671;47.936;8.716;2023-04-10T13:27:57;3.10;;;2.80;;
11228;SDS011;5671;47.936;8.716;2023-04-10T13:30:26;2.83;;;2.37;;
11228;SDS011;5671;47.936;8.716;2023-04-10T13:32:53;2.90;;;2.70;;
11228;SDS011;5671;47.936;8.716;2023-04-10T13:35:20;2.87;;;2.57;;
11228;SDS011;5671;47.936;8.716;2023-04-10T13:37:47;2.43;;;2.23;;
11228;SDS011;5671;47.936;8.716;2023-04-10T13:40:17;2.40;;;2.20;;
11228;SDS011;5671;47.936;8.716;2023-04-10T13:42:44;2.33;;;2.17;;
11228;SDS011;5671;47.936;8.716;2023-04-10T13:45:11;2.50;;;2.30;;
11228;SDS011;5671;47.936;8.716;2023-04-10T13:47:39;2.50;;;2.30;;
11228;SDS011;5671;47.936;8.716;2023-04-10T13:50:06;2.47;;;2.20;;
11228;SDS011;5671;47.936;8.716;2023-04-10T13:52:33;2.67;;;2.47;;
11228;SDS011;5671;47.936;8.716;2023-04-10T13:55:00;2.30;;;2.10;;
11228;SDS011;5671;47.936;8.716;2023-04-10T13:57:27;2.33;;;2.10;;
11228;SDS011;5671;47.936;8.716;2023-04-10T13:59:54;2.07;;;1.97;;
11228;SDS011;5671;47.936;8.716;2023-04-10T14:02:20;2.10;;;1.90;;
11228;SDS011;5671;47.936;8.716;2023-04-10T14:04:49;2.50;;;2.30;;
11228;SDS011;5671;47.936;8.716;2023-04-10T14:07:15;1.80;;;1.70;;
11228;SDS011;5671;47.936;8.716;2023-04-10T14:09:43;2.40;;;2.20;;
11228;SDS011;5671;47.936;8.716;2023-04-10T14:12:11;1.93;;;1.83;;
11228;SDS011;5671;47.936;8.716;2023-04-10T14:14:40;2.83;;;1.80;;
11228;SDS011;5671;47.936;8.716;2023-04-10T14:17:07;2.13;;;1.93;;
11228;SDS011;5671;47.936;8.716;2023-04-10T14:19:34;2.60;;;2.27;;
11228;SDS011;5671;47.936;8.716;2023-04-10T14:22:02;2.10;;;2.00;;
11228;SDS011;5671;47.936;8.716;2023-04-10T14:24:29;2.20;;;2.10;;
11228;SDS011;5671;47.936;8.716;2023-04-10T14:26:55;2.60;;;1.90;;
11228;SDS011;5671;47.936;8.716;2023-04-10T14:29:25;2.27;;;2.07;;
11228;SDS011;5671;47.936;8.716;2023-04-10T14:31:52;1.87;;;1.77;;
11228;SDS011;5671;47.936;8.716;2023-04-10T14:34:19;2.13;;;2.03;;
11228;SDS011;5671;47.936;8.716;2023-04-10T14:36:45;2.53;;;2.10;;
11228;SDS011;5671;47.936;8.716;2023-04-10T14:39:14;2.47;;;2.27;;
11228;SDS011;5671;47.936;8.716;2023-04-10T14:41:40;2.00;;;1.90;;
11228;SDS011;5671;47.936;8.716;2023-04-10T14:44:07;2.40;;;2.20;;
11228;SDS011;5671;47.936;8.716;2023-04-10T14:46:34;1.97;;;1.87;;
11228;SDS011;5671;47.936;8.716;2023-04-10T14:49:01;3.03;;;2.00;;
11228;SDS011;5671;47.936;8.716;2023-04-10T14:51:28;2.40;;;2.20;;
11228;SDS011;5671;47.936;8.716;2023-04-10T14:53:55;1.83;;;1.73;;
11228;SDS011;5671;47.936;8.716;2023-04-10T14:56:23;2.10;;;2.00;;
11228;SDS011;5671;47.936;8.716;2023-04-10T14:58:50;2.90;;;1.93;;
11228;SDS011;5671;47.936;8.716;2023-04-10T15:01:16;3.10;;;2.30;;
11228;SDS011;5671;47.936;8.716;2023-04-10T15:03:45;2.20;;;2.00;;
11228;SDS011;5671;47.936;8.716;2023-04-10T15:06:12;4.50;;;2.13;;
11228;SDS011;5671;47.936;8.716;2023-04-10T15:08:40;1.90;;;1.80;;
11228;SDS011;5671;47.936;8.716;2023-04-10T15:11:06;2.33;;;2.13;;
11228;SDS011;5671;47.936;8.716;2023-04-10T15:13:35;2.23;;;2.07;;
11228;SDS011;5671;47.936;8.716;2023-04-10T15:16:03;1.70;;;1.60;;
11228;SDS011;5671;47.936;8.716;2023-04-10T15:18:32;1.97;;;1.83;;
11228;SDS011;5671;47.936;8.716;2023-04-10T15:20:58;1.80;;;1.70;;
11228;SDS011;5671;47.936;8.716;2023-04-10T15:23:25;2.00;;;1.80;;
11228;SDS011;5671;47.936;8.716;2023-04-10T15:25:52;1.90;;;1.80;;